Terminal Aerodrome Forecast
Issued by NWS Pittsburgh, PA

Current Version | Previous Version | Graphics & Text | Print | Product List | Glossary On
Versions: 1 2 3 4 5 6 7 8 9 10 11 12 13 14 15 16 17 18 19 20 21 22 23 24 25 26 27 28 29 30 31 32 33 34 35
000
FTUS41 KPBZ 151134
TAFPIT
TAF
KPIT 151134Z 1512/1618 24008KT P6SM BKN025
     FM152200 24009KT 5SM -RA OVC015
     FM152300 24010KT 2SM RA BR OVC008
     FM160800 29011G19KT 6SM -RA OVC015=

USA.gov is the U.S. government's official web portal to all federal, state and local government web resources and services.